createdAt,value
2023-03-29T00:00:34.378Z,78.68
2023-03-29T00:03:16.529Z,77.23
2023-03-29T00:05:44.911Z,77.24
2023-03-29T00:08:14.772Z,76.47
2023-03-29T00:10:43.581Z,75.95
2023-03-29T00:13:11.656Z,77.86
2023-03-29T00:15:39.626Z,79.75
2023-03-29T00:18:07.733Z,78.35
2023-03-29T00:20:35.985Z,78.74
2023-03-29T00:23:03.947Z,77.95
2023-03-29T00:25:34.169Z,80.09
2023-03-29T00:28:02.304Z,78.09
2023-03-29T00:30:30.361Z,78.29
2023-03-29T00:32:58.498Z,76.96
2023-03-29T00:35:27.338Z,75.97
2023-03-29T00:37:55.445Z,76.72
2023-03-29T00:40:23.612Z,78.93
2023-03-29T00:42:51.896Z,77.02
2023-03-29T00:45:22.449Z,77.54
2023-03-29T00:47:58.033Z,78.43
2023-03-29T00:50:44.062Z,78.12
2023-03-29T00:53:31.967Z,77.51
2023-03-29T00:56:03.107Z,79.39
2023-03-29T00:58:38.565Z,78.33
2023-03-29T01:01:08.993Z,77.57
2023-03-29T01:03:46.572Z,78.36
2023-03-29T01:06:16.318Z,78.90
2023-03-29T01:08:47.952Z,78.91
2023-03-29T01:11:22.356Z,78.12
2023-03-29T01:13:52.013Z,79.61
2023-03-29T01:16:20.190Z,78.87
2023-03-29T01:18:48.483Z,78.64
2023-03-29T01:21:36.491Z,78.97
2023-03-29T01:24:13.724Z,78.18
2023-03-29T01:26:51.367Z,78.86
2023-03-29T01:29:41.672Z,78.34
2023-03-29T01:32:13.315Z,78.03
2023-03-29T01:35:10.596Z,78.02
2023-03-29T01:37:58.903Z,78.18
2023-03-29T01:40:28.322Z,77.45
2023-03-29T01:43:02.385Z,77.28
2023-03-29T01:45:37.074Z,78.26
2023-03-29T01:48:11.630Z,77.69
2023-03-29T01:51:05.431Z,77.52
2023-03-29T01:53:50.745Z,77.59
2023-03-29T01:56:21.965Z,77.40
2023-03-29T01:59:01.300Z,77.64
2023-03-29T02:01:31.555Z,76.55
2023-03-29T02:04:02.898Z,76.92
2023-03-29T02:06:33.671Z,76.92
2023-03-29T02:09:01.896Z,76.63
2023-03-29T02:11:30.401Z,76.97
2023-03-29T02:13:58.617Z,76.59
2023-03-29T02:16:26.809Z,76.65
2023-03-29T02:18:56.518Z,76.39
2023-03-29T02:21:35.967Z,76.72
2023-03-29T02:24:06.536Z,76.73
2023-03-29T02:26:34.658Z,77.28
2023-03-29T02:29:02.598Z,78.91
2023-03-29T02:31:41.333Z,79.31
2023-03-29T02:34:31.616Z,77.88
2023-03-29T02:37:01.967Z,76.67
2023-03-29T02:39:32.351Z,76.90
2023-03-29T02:42:00.572Z,77.06
2023-03-29T02:44:30.710Z,77.18
2023-03-29T02:47:29.688Z,77.46
2023-03-29T02:49:59.253Z,78.27
2023-03-29T02:52:33.653Z,78.46
2023-03-29T02:55:03.307Z,78.25
2023-03-29T02:57:32.609Z,79.22
2023-03-29T03:00:01.250Z,78.40
2023-03-29T03:02:30.347Z,78.25
2023-03-29T03:04:59.341Z,79.15
2023-03-29T03:07:28.888Z,79.17
2023-03-29T03:09:58.021Z,79.28
2023-03-29T03:12:26.567Z,79.23
2023-03-29T03:14:54.762Z,78.47
2023-03-29T03:17:23.357Z,78.07
2023-03-29T03:19:51.528Z,78.11
2023-03-29T03:22:19.530Z,77.28
2023-03-29T03:24:47.589Z,79.11
2023-03-29T03:27:16.767Z,77.19
2023-03-29T03:29:44.887Z,77.45
2023-03-29T03:32:18.680Z,78.02
2023-03-29T03:35:02.281Z,77.69
2023-03-29T03:37:30.468Z,78.25
2023-03-29T03:39:58.562Z,79.01
2023-03-29T03:42:29.957Z,78.43
2023-03-29T03:44:59.120Z,78.73
2023-03-29T03:47:31.932Z,78.48
2023-03-29T03:50:13.982Z,77.78
2023-03-29T03:52:41.993Z,78.20
2023-03-29T03:55:12.293Z,77.42
2023-03-29T03:57:48.617Z,77.28
2023-03-29T04:00:23.551Z,78.08
2023-03-29T04:03:30.322Z,79.40
2023-03-29T04:06:01.925Z,78.76
2023-03-29T04:08:36.195Z,77.69
2023-03-29T04:11:39.408Z,77.34
2023-03-29T04:14:07.919Z,77.45
2023-03-29T04:17:05.307Z,77.42
2023-03-29T04:19:51.553Z,78.20
2023-03-29T04:22:20.696Z,78.42
2023-03-29T04:24:50.263Z,79.13
2023-03-29T04:27:39.688Z,79.63
2023-03-29T04:30:16.224Z,78.64
2023-03-29T04:33:05.381Z,78.22
2023-03-29T04:35:38.217Z,80.37
2023-03-29T04:38:12.259Z,80.17
2023-03-29T04:40:41.089Z,79.29
2023-03-29T04:43:14.668Z,79.45
2023-03-29T04:49:00.805Z,80.11
2023-03-29T04:51:38.139Z,80.67
2023-03-29T04:54:06.832Z,87.34
2023-03-29T04:56:58.844Z,85.21
2023-03-29T04:59:45.366Z,80.46
2023-03-29T05:02:43.034Z,79.92
2023-03-29T05:05:12.854Z,79.76
2023-03-29T05:07:41.909Z,78.85
2023-03-29T05:10:15.238Z,79.30
2023-03-29T05:12:44.636Z,80.08
2023-03-29T05:15:13.700Z,80.84
2023-03-29T05:17:42.769Z,80.39
2023-03-29T05:20:13.295Z,79.47
2023-03-29T05:22:45.647Z,79.27
2023-03-29T05:25:20.656Z,79.19
2023-03-29T05:27:48.784Z,79.00
2023-03-29T05:30:18.167Z,79.85
2023-03-29T05:32:54.187Z,79.30
2023-03-29T05:35:29.499Z,80.33
2023-03-29T05:37:58.361Z,80.09
2023-03-29T05:40:26.882Z,80.26
2023-03-29T05:43:16.537Z,80.26
2023-03-29T05:45:44.891Z,80.68
2023-03-29T05:48:13.591Z,80.55
2023-03-29T05:50:49.360Z,80.54
2023-03-29T05:53:20.857Z,79.79
2023-03-29T05:55:49.806Z,79.22
2023-03-29T05:58:19.255Z,78.07
2023-03-29T06:00:49.747Z,77.23
2023-03-29T06:03:29.989Z,75.91
2023-03-29T06:06:02.522Z,73.94
2023-03-29T06:08:31.759Z,73.08
2023-03-29T06:11:12.202Z,70.94
2023-03-29T06:14:02.785Z,71.16
2023-03-29T06:16:32.920Z,70.83
2023-03-29T06:19:01.171Z,69.55
2023-03-29T06:21:30.479Z,68.47
2023-03-29T06:23:59.778Z,67.47
2023-03-29T06:26:29.789Z,66.69
2023-03-29T06:28:58.404Z,66.97
2023-03-29T06:31:27.465Z,65.24
2023-03-29T06:34:00.310Z,65.72
2023-03-29T06:36:59.200Z,63.90
2023-03-29T06:39:34.554Z,62.06
2023-03-29T06:42:24.270Z,62.22
2023-03-29T06:45:11.074Z,61.64
2023-03-29T06:47:40.947Z,59.33
2023-03-29T06:50:09.709Z,57.87
2023-03-29T06:53:00.494Z,58.16
2023-03-29T06:55:28.899Z,55.06
2023-03-29T06:57:59.680Z,53.46
2023-03-29T07:00:30.000Z,52.50
2023-03-29T07:03:13.521Z,53.76
2023-03-29T07:05:42.361Z,53.83
2023-03-29T07:08:15.334Z,53.62
2023-03-29T07:10:52.866Z,53.30
2023-03-29T07:13:27.741Z,53.52
2023-03-29T07:15:56.785Z,52.14
2023-03-29T07:18:57.735Z,49.56
2023-03-29T07:21:46.159Z,50.27
2023-03-29T07:24:15.849Z,49.11
2023-03-29T07:26:52.130Z,46.72
2023-03-29T07:29:29.024Z,46.30
2023-03-29T07:31:57.968Z,44.05
2023-03-29T07:34:44.455Z,43.61
2023-03-29T07:37:18.800Z,42.16
2023-03-29T07:39:47.415Z,41.98
2023-03-29T07:42:42.462Z,40.98
2023-03-29T07:45:11.933Z,40.73
2023-03-29T07:47:50.110Z,40.08
2023-03-29T07:50:18.359Z,37.46
2023-03-29T07:52:46.612Z,38.15
2023-03-29T07:55:15.781Z,38.23
2023-03-29T07:58:00.451Z,38.09
2023-03-29T08:00:28.836Z,37.33
2023-03-29T08:03:23.216Z,37.10
2023-03-29T08:05:52.165Z,37.55
2023-03-29T08:08:21.008Z,37.27
2023-03-29T08:10:58.639Z,35.78
2023-03-29T08:13:42.719Z,35.53
2023-03-29T08:16:16.881Z,35.64
2023-03-29T08:18:51.503Z,35.16
2023-03-29T08:21:20.475Z,35.05
2023-03-29T08:23:49.960Z,34.79
2023-03-29T08:26:49.119Z,34.68
2023-03-29T08:29:18.867Z,34.00
2023-03-29T08:31:47.688Z,34.12
2023-03-29T08:34:17.011Z,33.94
2023-03-29T08:37:25.994Z,33.86
2023-03-29T08:39:55.367Z,34.39
2023-03-29T08:43:02.126Z,33.88
2023-03-29T08:45:38.600Z,33.49
2023-03-29T08:48:25.090Z,33.47
2023-03-29T08:50:54.968Z,33.93
2023-03-29T08:53:30.760Z,33.43
2023-03-29T08:56:09.139Z,33.30
2023-03-29T08:58:57.839Z,32.97
2023-03-29T09:01:30.950Z,32.79
2023-03-29T09:04:06.861Z,31.58
2023-03-29T09:06:49.382Z,31.73
2023-03-29T09:09:22.683Z,31.83
2023-03-29T09:12:22.031Z,30.77
2023-03-29T09:14:53.757Z,31.48
2023-03-29T09:17:27.980Z,31.87
2023-03-29T09:20:41.097Z,32.00
2023-03-29T09:23:30.692Z,31.34
2023-03-29T09:26:32.636Z,31.76
2023-03-29T09:29:25.524Z,32.18
2023-03-29T09:31:54.111Z,31.34
2023-03-29T09:34:23.806Z,31.46
2023-03-29T09:37:04.729Z,32.02
2023-03-29T09:39:32.950Z,31.19
2023-03-29T09:42:09.437Z,30.63
2023-03-29T09:44:48.533Z,30.38
2023-03-29T09:47:30.268Z,30.83
2023-03-29T09:50:03.128Z,30.66
2023-03-29T09:52:31.609Z,30.91
2023-03-29T09:55:08.123Z,30.26
2023-03-29T09:57:44.651Z,30.60
2023-03-29T10:00:14.939Z,31.09
2023-03-29T10:02:50.262Z,30.32
2023-03-29T10:05:18.584Z,30.02
2023-03-29T10:07:54.463Z,30.53
2023-03-29T10:10:33.368Z,30.62
2023-03-29T10:13:05.044Z,30.40
2023-03-29T10:15:33.145Z,30.66
2023-03-29T10:18:03.746Z,30.53
2023-03-29T10:20:34.359Z,30.29
2023-03-29T10:23:02.432Z,30.88
2023-03-29T10:25:32.992Z,30.58
2023-03-29T10:28:06.567Z,30.80
2023-03-29T10:30:37.305Z,30.37
2023-03-29T10:33:05.456Z,30.81
2023-03-29T10:35:37.521Z,30.83
2023-03-29T10:38:07.967Z,30.58
2023-03-29T10:40:48.412Z,30.64
2023-03-29T10:43:19.597Z,30.66
2023-03-29T10:45:49.161Z,31.04
2023-03-29T10:48:17.927Z,30.16
2023-03-29T10:50:50.628Z,30.17
2023-03-29T10:53:29.747Z,30.61
2023-03-29T10:56:00.878Z,29.87
2023-03-29T10:58:47.940Z,29.66
2023-03-29T11:01:26.299Z,30.17
2023-03-29T11:04:23.178Z,30.22
2023-03-29T11:07:10.711Z,30.65
2023-03-29T11:10:01.160Z,30.36
2023-03-29T11:12:42.038Z,30.85
2023-03-29T11:15:16.328Z,31.35
2023-03-29T11:18:10.118Z,31.22
2023-03-29T11:20:49.870Z,31.07
2023-03-29T11:23:40.403Z,30.83
2023-03-29T11:26:15.340Z,30.39
2023-03-29T11:28:53.241Z,30.66
2023-03-29T11:31:51.682Z,30.84
2023-03-29T11:35:05.609Z,31.36
2023-03-29T11:37:33.747Z,31.59
2023-03-29T11:40:20.687Z,31.07
2023-03-29T11:42:49.637Z,30.80
2023-03-29T11:45:44.695Z,31.05
2023-03-29T11:48:28.835Z,30.62
2023-03-29T11:51:11.739Z,31.02
2023-03-29T11:53:43.087Z,30.75
2023-03-29T11:56:17.175Z,30.32
2023-03-29T11:58:50.638Z,30.63
2023-03-29T12:01:35.154Z,31.60
2023-03-29T12:04:08.008Z,31.42
2023-03-29T12:07:24.355Z,31.41
2023-03-29T12:09:59.233Z,31.57
2023-03-29T12:12:30.262Z,31.42
2023-03-29T12:15:05.606Z,31.19
2023-03-29T12:17:51.811Z,30.34
2023-03-29T12:20:29.577Z,30.48
2023-03-29T12:23:01.199Z,30.74
2023-03-29T12:25:59.368Z,30.88
2023-03-29T12:28:36.882Z,31.27
2023-03-29T12:31:21.703Z,31.38
2023-03-29T12:34:08.010Z,31.56
2023-03-29T12:37:49.396Z,31.43
2023-03-29T12:41:00.426Z,30.86
2023-03-29T12:43:48.164Z,31.61
2023-03-29T12:46:33.834Z,32.26
2023-03-29T12:49:10.461Z,32.57
2023-03-29T12:51:40.911Z,32.33
2023-03-29T12:54:28.854Z,32.32
2023-03-29T12:57:01.514Z,32.33
2023-03-29T12:59:40.759Z,31.97
2023-03-29T13:02:15.213Z,31.96
2023-03-29T13:04:44.006Z,31.62
2023-03-29T13:07:24.178Z,31.80
2023-03-29T13:10:02.418Z,32.00
2023-03-29T13:12:42.456Z,31.77
2023-03-29T13:15:19.498Z,31.81
2023-03-29T13:18:13.027Z,30.74
2023-03-29T13:21:03.317Z,31.22
2023-03-29T13:23:39.127Z,31.42
2023-03-29T13:26:11.517Z,31.77
2023-03-29T13:28:43.415Z,32.48
2023-03-29T13:31:26.788Z,32.70
2023-03-29T13:34:15.135Z,32.77
2023-03-29T13:37:21.152Z,32.72
2023-03-29T13:39:53.894Z,32.49
2023-03-29T13:42:37.147Z,32.25
2023-03-29T13:45:32.685Z,32.49
2023-03-29T13:48:24.250Z,32.38
2023-03-29T13:50:58.002Z,33.34
2023-03-29T13:53:30.176Z,34.08
2023-03-29T13:55:58.624Z,34.50
2023-03-29T13:59:19.320Z,34.51
2023-03-29T14:01:57.499Z,34.91
2023-03-29T14:04:28.993Z,34.60
2023-03-29T14:06:57.789Z,34.52
2023-03-29T14:09:30.273Z,34.50
2023-03-29T14:12:01.571Z,33.87
2023-03-29T14:14:30.711Z,33.80
2023-03-29T14:17:00.261Z,33.38
2023-03-29T14:19:33.316Z,33.18
2023-03-29T14:22:02.152Z,33.88
2023-03-29T14:24:41.420Z,34.23
2023-03-29T14:27:11.631Z,34.57
2023-03-29T14:29:40.164Z,34.73
2023-03-29T14:32:17.009Z,35.06
2023-03-29T14:34:49.662Z,35.42
2023-03-29T14:37:24.833Z,35.41
2023-03-29T14:39:53.657Z,35.19
2023-03-29T14:42:25.234Z,35.27
2023-03-29T14:44:59.149Z,35.43
2023-03-29T14:47:28.793Z,35.35
2023-03-29T14:50:00.962Z,35.59
2023-03-29T14:52:29.868Z,35.86
2023-03-29T14:55:02.406Z,35.83
2023-03-29T14:57:34.641Z,35.73
2023-03-29T15:00:17.388Z,35.68
2023-03-29T15:02:49.989Z,36.00
2023-03-29T15:05:25.415Z,36.13
2023-03-29T15:07:56.372Z,36.47
2023-03-29T15:10:24.486Z,36.78
2023-03-29T15:12:52.897Z,36.56
2023-03-29T15:15:21.516Z,36.47
2023-03-29T15:17:52.329Z,36.88
2023-03-29T15:20:36.699Z,37.03
2023-03-29T15:23:17.163Z,37.08
2023-03-29T15:25:58.862Z,37.23
2023-03-29T15:28:28.516Z,37.34
2023-03-29T15:31:14.407Z,37.44
2023-03-29T15:33:42.633Z,37.33
2023-03-29T15:36:12.731Z,37.24
2023-03-29T15:38:44.587Z,37.45
2023-03-29T15:41:14.570Z,37.54
2023-03-29T15:43:43.036Z,37.77
2023-03-29T15:46:12.482Z,37.84
2023-03-29T15:48:46.417Z,38.04
2023-03-29T15:51:15.236Z,37.95
2023-03-29T15:53:43.334Z,38.14
2023-03-29T15:56:17.682Z,38.16
2023-03-29T15:58:45.920Z,38.22
2023-03-29T16:01:23.853Z,38.36
2023-03-29T16:03:52.404Z,38.73
2023-03-29T16:06:23.051Z,38.74
2023-03-29T16:08:51.433Z,38.67
2023-03-29T16:11:20.309Z,38.67
2023-03-29T16:13:48.857Z,38.70
2023-03-29T16:16:27.890Z,38.66
2023-03-29T16:18:56.778Z,39.10
2023-03-29T16:21:29.534Z,39.35
2023-03-29T16:24:04.630Z,39.80
2023-03-29T16:26:32.767Z,40.04
2023-03-29T16:29:01.108Z,40.67
2023-03-29T16:31:29.316Z,40.92
2023-03-29T16:34:00.990Z,41.30
2023-03-29T16:36:31.063Z,41.27
2023-03-29T16:38:59.724Z,41.51
2023-03-29T16:41:28.273Z,41.88
2023-03-29T16:43:56.838Z,41.95
2023-03-29T16:46:25.237Z,42.30
2023-03-29T16:48:53.836Z,42.88
2023-03-29T16:51:22.411Z,43.33
2023-03-29T16:53:51.795Z,43.37
2023-03-29T16:56:23.560Z,43.60
2023-03-29T16:58:51.839Z,43.63
2023-03-29T17:01:20.761Z,43.50
2023-03-29T17:03:49.071Z,43.59
2023-03-29T17:06:20.978Z,44.18
2023-03-29T17:08:50.825Z,44.12
2023-03-29T17:11:24.024Z,44.34
2023-03-29T17:13:52.139Z,44.61
2023-03-29T17:16:20.831Z,45.07
2023-03-29T17:18:50.444Z,45.40
2023-03-29T17:21:18.702Z,45.42
2023-03-29T17:23:46.811Z,45.74
2023-03-29T17:26:18.672Z,45.82
2023-03-29T17:28:47.075Z,46.07
2023-03-29T17:31:17.136Z,46.46
2023-03-29T17:33:45.516Z,46.48
2023-03-29T17:36:13.672Z,46.56
2023-03-29T17:38:43.228Z,46.62
2023-03-29T17:41:11.470Z,46.92
2023-03-29T17:43:39.501Z,47.34
2023-03-29T17:46:07.664Z,46.84
2023-03-29T17:48:35.909Z,47.37
2023-03-29T17:51:05.104Z,47.45
2023-03-29T17:53:33.546Z,47.61
2023-03-29T17:56:05.065Z,47.75
2023-03-29T17:58:34.790Z,47.81
2023-03-29T18:01:10.082Z,47.56
2023-03-29T18:03:38.285Z,47.86
2023-03-29T18:06:09.594Z,47.85
2023-03-29T18:08:38.427Z,47.86
2023-03-29T18:11:23.082Z,48.40
2023-03-29T18:13:52.156Z,48.38
2023-03-29T18:16:21.064Z,49.00
2023-03-29T18:18:49.777Z,49.32
2023-03-29T18:21:18.444Z,49.46
2023-03-29T18:23:47.716Z,49.92
2023-03-29T18:26:16.423Z,49.55
2023-03-29T18:28:47.115Z,50.03
2023-03-29T18:31:15.978Z,50.11
2023-03-29T18:33:44.445Z,50.63
2023-03-29T18:36:13.672Z,50.58
2023-03-29T18:38:43.489Z,50.29
2023-03-29T18:41:13.118Z,50.68
2023-03-29T18:43:43.352Z,50.85
2023-03-29T18:46:15.884Z,50.88
2023-03-29T18:48:44.223Z,51.32
2023-03-29T18:51:15.841Z,51.06
2023-03-29T18:53:44.473Z,51.37
2023-03-29T18:56:12.720Z,51.47
2023-03-29T18:58:44.313Z,51.65
2023-03-29T19:01:14.170Z,51.98
2023-03-29T19:03:42.445Z,51.77
2023-03-29T19:06:12.007Z,51.84
2023-03-29T19:08:41.521Z,51.38
2023-03-29T19:11:11.502Z,52.15
2023-03-29T19:13:39.596Z,51.98
2023-03-29T19:16:08.300Z,51.92
2023-03-29T19:18:38.494Z,52.26
2023-03-29T19:21:09.155Z,52.33
2023-03-29T19:23:38.048Z,52.80
2023-03-29T19:26:06.708Z,52.87
2023-03-29T19:28:35.391Z,53.01
2023-03-29T19:31:03.988Z,52.52
2023-03-29T19:33:33.886Z,53.09
2023-03-29T19:36:04.668Z,53.81
2023-03-29T19:38:33.390Z,53.75
2023-03-29T19:41:01.788Z,54.25
2023-03-29T19:43:29.898Z,53.89
2023-03-29T19:46:06.121Z,54.57
2023-03-29T19:48:34.999Z,53.78
2023-03-29T19:51:07.076Z,53.53
2023-03-29T19:53:38.490Z,53.28
2023-03-29T19:56:08.067Z,53.57
2023-03-29T19:58:37.726Z,53.81
2023-03-29T20:01:06.159Z,54.71
2023-03-29T20:03:36.255Z,54.59
2023-03-29T20:06:04.888Z,54.98
2023-03-29T20:08:33.276Z,54.68
2023-03-29T20:11:05.264Z,54.85
2023-03-29T20:13:38.787Z,55.56
2023-03-29T20:16:09.773Z,55.75
2023-03-29T20:18:49.875Z,55.40
2023-03-29T20:21:19.934Z,56.12
2023-03-29T20:23:49.051Z,55.99
2023-03-29T20:26:18.788Z,56.16
2023-03-29T20:28:47.299Z,56.34
2023-03-29T20:31:16.415Z,56.37
2023-03-29T20:33:44.798Z,56.45
2023-03-29T20:36:15.330Z,55.91
2023-03-29T20:38:43.693Z,55.83
2023-03-29T20:41:11.835Z,56.35
2023-03-29T20:43:41.319Z,56.51
2023-03-29T20:46:14.680Z,56.60
2023-03-29T20:48:54.921Z,56.21
2023-03-29T20:51:33.227Z,56.34
2023-03-29T20:54:04.836Z,55.76
2023-03-29T20:56:38.946Z,56.07
2023-03-29T20:59:10.934Z,57.29
2023-03-29T21:01:41.092Z,57.50
2023-03-29T21:04:11.056Z,58.21
2023-03-29T21:06:42.297Z,59.00
2023-03-29T21:09:10.421Z,58.89
2023-03-29T21:11:39.316Z,58.21
2023-03-29T21:14:09.571Z,58.37
2023-03-29T21:16:42.178Z,58.91
2023-03-29T21:19:10.581Z,58.84
2023-03-29T21:21:41.595Z,58.52
2023-03-29T21:24:10.910Z,59.05
2023-03-29T21:26:39.710Z,59.38
2023-03-29T21:29:08.030Z,59.18
2023-03-29T21:31:36.818Z,59.17
2023-03-29T21:34:05.656Z,59.52
2023-03-29T21:36:33.668Z,59.99
2023-03-29T21:39:01.806Z,59.77
2023-03-29T21:41:30.115Z,59.86
2023-03-29T21:43:58.353Z,60.26
2023-03-29T21:46:27.816Z,60.40
2023-03-29T21:48:56.124Z,60.07
2023-03-29T21:51:24.142Z,60.17
2023-03-29T21:53:52.590Z,60.40
2023-03-29T21:56:22.893Z,60.53
2023-03-29T21:58:51.119Z,60.85
2023-03-29T22:01:19.463Z,60.35
2023-03-29T22:03:47.791Z,60.69
2023-03-29T22:06:15.877Z,60.47
2023-03-29T22:08:46.872Z,60.40
2023-03-29T22:11:15.732Z,60.17
2023-03-29T22:13:44.040Z,60.42
2023-03-29T22:16:14.273Z,60.33
2023-03-29T22:18:42.620Z,60.44
2023-03-29T22:21:28.588Z,60.66
2023-03-29T22:23:57.383Z,60.74
2023-03-29T22:26:30.640Z,60.57
2023-03-29T22:28:59.389Z,60.66
2023-03-29T22:31:28.302Z,60.66
2023-03-29T22:33:57.012Z,60.81
2023-03-29T22:36:29.178Z,61.70
2023-03-29T22:38:57.892Z,61.31
2023-03-29T22:41:27.775Z,61.52
2023-03-29T22:43:57.028Z,61.04
2023-03-29T22:46:25.485Z,61.38
2023-03-29T22:48:53.624Z,62.04
2023-03-29T22:51:22.535Z,62.10
2023-03-29T22:53:51.674Z,62.18
2023-03-29T22:56:19.751Z,62.88
2023-03-29T22:58:47.805Z,62.10
2023-03-29T23:01:15.932Z,61.97
2023-03-29T23:03:43.964Z,62.57
2023-03-29T23:06:12.248Z,62.61
2023-03-29T23:08:40.574Z,62.98
2023-03-29T23:11:09.353Z,63.64
2023-03-29T23:13:37.788Z,63.26
2023-03-29T23:16:07.756Z,63.50
2023-03-29T23:18:37.966Z,63.48
2023-03-29T23:21:07.390Z,63.37
2023-03-29T23:23:36.185Z,63.53
2023-03-29T23:26:04.553Z,64.39
2023-03-29T23:28:35.025Z,63.61
2023-03-29T23:31:05.190Z,64.32
2023-03-29T23:33:36.054Z,64.10
2023-03-29T23:36:07.692Z,64.27
2023-03-29T23:38:36.699Z,64.39
2023-03-29T23:41:06.511Z,65.49
2023-03-29T23:43:37.300Z,65.14
2023-03-29T23:46:07.157Z,65.25
2023-03-29T23:48:35.175Z,65.13
2023-03-29T23:51:03.487Z,64.94
2023-03-29T23:53:32.284Z,65.10
2023-03-29T23:56:01.687Z,65.14
2023-03-29T23:58:31.799Z,65.17
